Terminal Aerodrome Forecast
Issued by NWS

Home | Current Version | Previous Version | Graphics & Text | Print | Product List | Glossary On
Versions: 1 2 3 4 5 6 7 8 9 10 11 12 13 14 15 16 17
000
FTUS43 KIWX 101129
TAFSBN
TAF
KSBN 101129Z 1012/1112 23008KT P6SM BKN100
     FM101500 22010G18KT P6SM SCT200
     FM101900 26010KT P6SM BKN025
     FM110300 32005KT P6SM BKN025=

USA.gov is the U.S. government's official web portal to all federal, state and local government web resources and services.